Time;durP1;ratioP1;P1;durP2;ratioP2;P2;SDS_P1;SDS_P2;PMS_P1;PMS_P2;Temp;Humidity;BMP_temperature;BMP_pressure;BME280_temperature;BME280_humidity;BME280_pressure;Samples;Min_cycle;Max_cycle;Signal;HPM_P1;HPM_P2
2023/06/20 00:01:29;;;;;;;7.80;7.10;;;18.50;99.90;;;;;;5041935;28;20466;-86
2023/06/20 00:03:56;;;;;;;8.10;7.30;;;18.40;99.90;;;;;;5041243;28;20461;-87
2023/06/20 00:06:23;;;;;;;8.33;7.73;;;18.30;99.90;;;;;;5046412;28;20461;-85
2023/06/20 00:08:50;;;;;;;8.73;7.20;;;18.20;99.90;;;;;;5044398;28;20500;-87
2023/06/20 00:11:18;;;;;;;6.40;5.93;;;18.10;99.90;;;;;;5046075;28;20459;-85
2023/06/20 00:13:45;;;;;;;7.67;7.17;;;18.10;99.90;;;;;;5041278;28;20499;-85
2023/06/20 00:16:13;;;;;;;8.23;7.53;;;18.10;99.90;;;;;;5046729;28;20509;-87
2023/06/20 00:18:39;;;;;;;7.73;7.03;;;18.10;99.90;;;;;;5043663;28;20541;-85
2023/06/20 00:21:07;;;;;;;5.60;5.20;;;18.10;99.90;;;;;;5045047;28;20547;-88
2023/06/20 00:23:33;;;;;;;7.10;6.50;;;18.10;99.90;;;;;;5045612;28;20540;-89
2023/06/20 00:26:00;;;;;;;7.60;6.90;;;18.10;99.90;;;;;;5044767;28;20558;-85
2023/06/20 00:28:29;;;;;;;7.33;6.63;;;18.10;99.90;;;;;;5041098;28;20562;-86
2023/06/20 00:30:56;;;;;;;7.17;6.50;;;18.00;99.90;;;;;;5049155;28;20473;-86
2023/06/20 00:33:22;;;;;;;6.90;6.37;;;18.00;99.90;;;;;;5044544;28;20469;-86
2023/06/20 00:35:49;;;;;;;7.40;6.70;;;18.00;99.90;;;;;;5049108;28;20510;-86
2023/06/20 00:38:16;;;;;;;7.17;6.67;;;17.90;99.90;;;;;;5049633;28;21046;-86
2023/06/20 00:40:43;;;;;;;6.70;6.17;;;18.00;99.90;;;;;;5047123;28;20515;-86
2023/06/20 00:43:12;;;;;;;7.97;7.27;;;18.00;99.90;;;;;;5044951;28;20490;-86
2023/06/20 00:45:40;;;;;;;7.80;7.10;;;17.90;99.90;;;;;;5045149;28;20473;-87
2023/06/20 00:48:08;;;;;;;8.10;6.70;;;17.90;99.90;;;;;;5045437;28;20485;-87
2023/06/20 00:50:36;;;;;;;6.60;6.10;;;17.90;99.90;;;;;;5046280;28;20587;-85
2023/06/20 00:53:05;;;;;;;7.63;5.97;;;17.90;99.90;;;;;;5049896;28;20581;-86
2023/06/20 00:55:34;;;;;;;6.47;5.97;;;17.90;99.90;;;;;;5047147;28;20461;-89
2023/06/20 00:58:02;;;;;;;6.40;6.00;;;17.80;99.90;;;;;;5047352;28;20475;-85
2023/06/20 01:00:32;;;;;;;6.97;6.47;;;17.80;99.90;;;;;;5046823;28;20493;-87
2023/06/20 01:03:03;;;;;;;6.50;6.00;;;17.70;99.90;;;;;;5038072;28;20465;-86
2023/06/20 01:05:31;;;;;;;7.57;6.93;;;17.70;99.90;;;;;;5048965;28;20709;-85
2023/06/20 01:08:09;;;;;;;7.03;6.43;;;17.70;99.90;;;;;;5048300;28;20484;-88
2023/06/20 01:10:49;;;;;;;7.20;6.60;;;17.60;99.90;;;;;;5045891;28;20457;-87
2023/06/20 01:13:26;;;;;;;6.80;6.20;;;17.60;99.90;;;;;;5046266;28;20558;-86
2023/06/20 01:16:05;;;;;;;8.77;8.00;;;17.70;99.90;;;;;;5045288;28;20518;-87
2023/06/20 01:18:44;;;;;;;6.23;5.73;;;17.70;99.90;;;;;;5048428;28;20471;-86
2023/06/20 01:21:16;;;;;;;7.03;6.43;;;17.60;99.90;;;;;;5048432;28;20499;-89
2023/06/20 01:23:50;;;;;;;7.50;6.90;;;17.60;99.90;;;;;;5046244;28;20523;-88
2023/06/20 01:26:22;;;;;;;8.57;7.37;;;17.70;99.90;;;;;;5046091;28;20471;-86
2023/06/20 01:28:54;;;;;;;8.07;7.40;;;17.80;99.90;;;;;;5041695;28;20575;-86
2023/06/20 01:31:25;;;;;;;8.00;6.80;;;17.80;99.90;;;;;;5044574;28;20535;-86
2023/06/20 01:33:57;;;;;;;8.30;7.40;;;17.70;99.90;;;;;;5039486;28;20526;-87
2023/06/20 01:36:25;;;;;;;7.70;7.03;;;17.60;99.90;;;;;;5045914;28;20913;-86
2023/06/20 01:39:00;;;;;;;7.17;6.47;;;17.50;99.90;;;;;;5037137;28;20500;-88
2023/06/20 01:41:28;;;;;;;8.00;7.00;;;17.40;99.90;;;;;;5044657;28;20846;-86
2023/06/20 01:43:57;;;;;;;7.40;6.60;;;17.50;99.90;;;;;;5046232;28;20455;-88
2023/06/20 01:46:24;;;;;;;8.50;7.70;;;17.40;99.90;;;;;;5046283;28;20449;-88
2023/06/20 01:48:52;;;;;;;6.17;5.57;;;17.50;99.90;;;;;;5045338;28;21000;-86
2023/06/20 01:51:20;;;;;;;6.27;5.80;;;17.50;99.90;;;;;;5048314;28;21105;-86
2023/06/20 01:53:48;;;;;;;7.30;6.70;;;17.50;99.90;;;;;;5045461;28;20445;-88
2023/06/20 01:56:18;;;;;;;7.20;6.60;;;17.40;99.90;;;;;;5046688;28;20470;-87
2023/06/20 01:58:46;;;;;;;7.10;6.40;;;17.30;99.90;;;;;;5042135;28;20963;-87
2023/06/20 02:01:15;;;;;;;8.30;7.60;;;17.20;99.90;;;;;;5042791;28;21066;-85
2023/06/20 02:03:44;;;;;;;6.27;5.80;;;17.20;99.90;;;;;;5043421;28;20496;-84
2023/06/20 02:06:13;;;;;;;7.10;6.60;;;17.20;99.90;;;;;;5040350;28;20525;-86
2023/06/20 02:08:41;;;;;;;7.27;6.50;;;17.10;99.90;;;;;;5044109;28;20846;-87
2023/06/20 02:11:09;;;;;;;7.27;6.60;;;17.10;99.90;;;;;;5037747;28;20445;-85
2023/06/20 02:13:38;;;;;;;6.17;5.77;;;17.10;99.90;;;;;;5041013;28;20460;-86
2023/06/20 02:16:08;;;;;;;7.20;6.43;;;17.20;99.90;;;;;;5044697;28;20873;-85
2023/06/20 02:18:35;;;;;;;7.67;6.63;;;17.20;99.90;;;;;;5042188;28;20463;-85
2023/06/20 02:21:05;;;;;;;6.70;6.10;;;17.10;99.90;;;;;;5043501;28;20548;-85
2023/06/20 02:23:35;;;;;;;6.50;6.10;;;17.10;99.90;;;;;;5040541;28;20490;-85
2023/06/20 02:26:08;;;;;;;7.93;7.27;;;17.10;99.90;;;;;;5043135;28;20496;-87
2023/06/20 02:28:39;;;;;;;7.33;6.63;;;17.10;99.90;;;;;;5035397;28;20489;-86
2023/06/20 02:31:09;;;;;;;7.10;6.43;;;17.10;99.90;;;;;;5046096;28;20872;-85
2023/06/20 02:33:37;;;;;;;8.00;6.60;;;17.00;99.90;;;;;;5043091;28;20445;-86
2023/06/20 02:36:05;;;;;;;5.90;5.40;;;17.00;99.90;;;;;;5042278;28;20584;-85
2023/06/20 02:38:32;;;;;;;9.03;6.80;;;17.10;99.90;;;;;;5043809;28;21140;-83
2023/06/20 02:41:00;;;;;;;6.70;6.20;;;17.10;99.90;;;;;;5046835;28;20453;-84
2023/06/20 02:43:28;;;;;;;7.40;6.80;;;17.10;99.90;;;;;;5045065;28;21018;-84
2023/06/20 02:46:04;;;;;;;7.47;6.97;;;17.10;99.90;;;;;;5045745;28;20503;-85
2023/06/20 02:48:38;;;;;;;7.37;6.63;;;17.00;99.90;;;;;;5038237;28;20513;-88
2023/06/20 02:51:11;;;;;;;7.47;6.63;;;17.00;99.90;;;;;;5045868;28;20558;-85
2023/06/20 02:53:45;;;;;;;8.20;7.40;;;17.00;99.90;;;;;;5049248;28;21076;-85
2023/06/20 02:56:14;;;;;;;7.50;6.80;;;17.00;99.90;;;;;;5040607;28;20909;-84
2023/06/20 02:58:45;;;;;;;7.30;6.80;;;16.90;99.90;;;;;;5043761;28;20592;-85
2023/06/20 03:01:17;;;;;;;8.00;7.20;;;16.90;99.90;;;;;;5047010;28;20454;-84
2023/06/20 03:03:46;;;;;;;7.50;6.90;;;16.80;99.90;;;;;;5044992;28;20462;-86
2023/06/20 03:06:15;;;;;;;7.03;6.43;;;16.70;99.90;;;;;;5047347;28;20462;-84
2023/06/20 03:08:44;;;;;;;7.20;6.50;;;16.80;99.90;;;;;;5041039;28;20579;-85
2023/06/20 03:11:11;;;;;;;8.33;7.63;;;16.80;99.90;;;;;;5045233;28;20558;-85
2023/06/20 03:13:39;;;;;;;8.93;8.13;;;16.90;99.90;;;;;;5040299;28;20549;-87
2023/06/20 03:16:09;;;;;;;7.63;6.93;;;16.70;99.90;;;;;;5043358;28;20487;-85
2023/06/20 03:18:37;;;;;;;7.70;6.87;;;16.60;99.90;;;;;;5043254;28;20553;-85
2023/06/20 03:21:04;;;;;;;7.93;7.23;;;16.70;99.90;;;;;;5045312;28;20462;-87
2023/06/20 03:23:31;;;;;;;7.23;6.70;;;16.60;99.90;;;;;;5046593;28;20469;-85
2023/06/20 03:25:58;;;;;;;7.93;7.33;;;16.60;99.90;;;;;;5046138;28;21127;-88
2023/06/20 03:28:26;;;;;;;7.60;6.90;;;16.80;99.90;;;;;;5047059;28;20567;-85
2023/06/20 03:30:53;;;;;;;6.43;5.87;;;16.90;99.90;;;;;;5039820;28;20446;-87
2023/06/20 03:33:20;;;;;;;7.93;7.33;;;16.80;99.90;;;;;;5048966;28;20466;-84
2023/06/20 03:35:48;;;;;;;8.83;7.93;;;16.90;99.90;;;;;;5045507;28;20952;-86
2023/06/20 03:38:16;;;;;;;7.37;6.77;;;16.90;99.90;;;;;;5042701;28;21046;-85
2023/06/20 03:40:43;;;;;;;7.83;7.13;;;16.90;99.90;;;;;;5045824;28;20464;-88
2023/06/20 03:43:10;;;;;;;7.50;6.80;;;16.90;99.90;;;;;;5044838;28;20522;-86
2023/06/20 03:45:37;;;;;;;7.60;7.00;;;16.80;99.90;;;;;;5046059;28;20502;-87
2023/06/20 03:48:04;;;;;;;7.50;6.80;;;16.90;99.90;;;;;;5042607;28;20549;-88
2023/06/20 03:50:31;;;;;;;7.87;7.17;;;16.80;99.90;;;;;;5043328;28;21194;-86
2023/06/20 03:53:00;;;;;;;7.47;6.77;;;16.80;99.90;;;;;;5045594;28;20531;-86
2023/06/20 03:55:27;;;;;;;9.50;8.60;;;16.80;99.90;;;;;;5047293;28;20465;-87
2023/06/20 03:57:55;;;;;;;8.07;7.33;;;16.90;99.90;;;;;;5042208;28;20953;-85
2023/06/20 04:00:22;;;;;;;8.13;7.43;;;17.00;99.90;;;;;;5045463;28;20477;-84
2023/06/20 04:02:49;;;;;;;7.70;7.00;;;17.20;99.90;;;;;;5047214;28;20499;-84
2023/06/20 04:05:16;;;;;;;7.53;6.87;;;17.30;99.90;;;;;;5048100;28;20450;-85
2023/06/20 04:07:43;;;;;;;7.13;6.53;;;17.40;99.90;;;;;;5048515;28;20487;-84
2023/06/20 04:10:13;;;;;;;8.97;8.17;;;17.50;99.90;;;;;;5047729;28;21075;-84
2023/06/20 04:12:40;;;;;;;9.13;7.27;;;17.60;99.90;;;;;;5049404;28;21001;-86
2023/06/20 04:15:08;;;;;;;9.40;8.60;;;17.60;99.90;;;;;;5049141;28;20879;-86
2023/06/20 04:17:37;;;;;;;11.23;8.27;;;17.50;99.90;;;;;;5040573;28;20526;-85
2023/06/20 04:20:10;;;;;;;11.10;9.53;;;17.50;99.90;;;;;;5045233;28;20484;-88
2023/06/20 04:22:40;;;;;;;8.63;7.83;;;17.50;99.90;;;;;;5049259;28;20457;-85
2023/06/20 04:25:08;;;;;;;9.20;8.37;;;17.70;99.90;;;;;;5046159;28;20487;-85
2023/06/20 04:27:36;;;;;;;7.10;6.53;;;17.90;99.90;;;;;;5048979;28;20459;-87
2023/06/20 04:30:05;;;;;;;8.10;7.40;;;18.20;99.90;;;;;;5044855;28;21099;-85
2023/06/20 04:32:32;;;;;;;8.23;7.47;;;18.40;99.90;;;;;;5048360;28;20452;-87
2023/06/20 04:34:59;;;;;;;6.93;6.40;;;18.90;99.90;;;;;;5048559;28;20499;-83
2023/06/20 04:37:29;;;;;;;8.70;8.00;;;19.20;99.90;;;;;;5041732;28;20487;-84
2023/06/20 04:39:57;;;;;;;10.17;8.60;;;19.40;99.90;;;;;;5046559;28;20540;-85
2023/06/20 04:42:24;;;;;;;8.23;7.50;;;19.60;99.90;;;;;;5049113;28;20453;-81
2023/06/20 04:44:52;;;;;;;8.47;7.73;;;19.70;99.90;;;;;;5046425;28;20494;-83
2023/06/20 04:47:19;;;;;;;9.00;8.20;;;19.90;99.90;;;;;;5048266;28;20480;-89
2023/06/20 04:49:46;;;;;;;9.60;8.30;;;20.00;99.90;;;;;;5041535;28;20521;-84
2023/06/20 04:52:13;;;;;;;8.30;7.50;;;20.10;99.90;;;;;;5044046;28;20917;-85
2023/06/20 04:54:40;;;;;;;8.30;7.50;;;20.30;99.90;;;;;;5044015;28;20537;-85
2023/06/20 04:57:07;;;;;;;9.00;7.40;;;20.50;99.90;;;;;;5041103;28;20454;-85
2023/06/20 04:59:35;;;;;;;8.97;8.00;;;20.70;99.90;;;;;;5043230;28;20524;-84
2023/06/20 05:02:06;;;;;;;9.27;8.47;;;21.00;99.00;;;;;;5042860;28;20449;-83
2023/06/20 05:04:33;;;;;;;10.23;8.70;;;21.20;98.20;;;;;;5034303;28;20503;-87
2023/06/20 05:07:01;;;;;;;8.27;7.27;;;21.20;97.80;;;;;;5041651;28;20524;-81
2023/06/20 05:09:29;;;;;;;8.00;7.37;;;21.10;98.60;;;;;;5046842;28;20572;-83
2023/06/20 05:11:55;;;;;;;10.33;7.60;;;20.80;99.70;;;;;;5038125;28;21081;-82
2023/06/20 05:14:22;;;;;;;10.23;9.33;;;20.60;99.70;;;;;;5043108;28;20530;-82
2023/06/20 05:16:49;;;;;;;8.17;7.47;;;20.30;99.90;;;;;;5044564;28;20477;-83
2023/06/20 05:19:18;;;;;;;8.67;8.00;;;20.20;99.90;;;;;;5040764;28;21035;-84
2023/06/20 05:21:44;;;;;;;7.57;6.87;;;20.10;99.90;;;;;;5044819;28;20939;-82
2023/06/20 05:24:12;;;;;;;10.80;9.30;;;19.90;99.90;;;;;;5042747;28;20991;-82
2023/06/20 05:26:39;;;;;;;9.93;9.20;;;19.80;99.90;;;;;;5045164;28;20461;-82
2023/06/20 05:29:06;;;;;;;9.60;8.70;;;19.80;99.90;;;;;;5042438;28;20478;-84
2023/06/20 05:31:33;;;;;;;9.83;8.90;;;19.80;99.90;;;;;;5046707;28;21447;-82
2023/06/20 05:34:00;;;;;;;10.10;9.30;;;19.90;99.90;;;;;;5041366;28;20593;-83
2023/06/20 05:36:28;;;;;;;9.17;8.47;;;20.20;99.90;;;;;;5042962;28;20500;-86
2023/06/20 05:38:58;;;;;;;10.33;9.17;;;20.70;99.90;;;;;;5043598;28;20465;-83
2023/06/20 05:41:25;;;;;;;11.13;8.80;;;21.10;99.90;;;;;;5044354;28;20451;-86
2023/06/20 05:43:52;;;;;;;10.33;7.60;;;21.40;99.90;;;;;;5046267;28;20536;-85
2023/06/20 05:46:19;;;;;;;9.77;8.97;;;21.60;99.90;;;;;;5045627;28;20473;-83
2023/06/20 05:48:48;;;;;;;10.20;8.80;;;21.80;99.90;;;;;;5043944;28;21077;-86
2023/06/20 05:51:15;;;;;;;9.43;8.63;;;21.90;99.00;;;;;;5046057;28;20445;-83
2023/06/20 05:53:43;;;;;;;8.37;7.67;;;21.70;98.70;;;;;;5046558;28;20554;-84
2023/06/20 05:56:10;;;;;;;11.17;10.03;;;21.40;97.80;;;;;;5046364;28;20949;-85
2023/06/20 05:58:38;;;;;;;9.03;8.30;;;21.30;98.00;;;;;;5045338;28;21437;-86
2023/06/20 06:01:05;;;;;;;9.07;8.17;;;21.60;97.30;;;;;;5042993;28;20481;-85
2023/06/20 06:03:34;;;;;;;9.07;8.17;;;21.70;97.60;;;;;;5044771;28;20465;-84
2023/06/20 06:06:03;;;;;;;8.17;7.40;;;22.00;97.60;;;;;;5046276;28;20543;-84
2023/06/20 06:08:30;;;;;;;9.13;8.43;;;22.10;97.00;;;;;;5043647;28;20514;-85
2023/06/20 06:10:58;;;;;;;9.83;9.00;;;22.20;97.10;;;;;;5045563;28;20532;-85
2023/06/20 06:13:28;;;;;;;8.70;8.00;;;22.20;97.20;;;;;;5046956;28;20457;-87
2023/06/20 06:15:55;;;;;;;9.23;7.57;;;22.50;96.60;;;;;;5043687;28;20635;-88
2023/06/20 06:18:22;;;;;;;8.40;7.70;;;22.80;95.70;;;;;;5039418;28;21236;-86
2023/06/20 06:20:49;;;;;;;12.60;9.97;;;23.10;94.40;;;;;;5044613;28;20488;-84
2023/06/20 06:23:15;;;;;;;9.93;9.23;;;23.00;94.70;;;;;;5043676;28;20493;-84
2023/06/20 06:25:44;;;;;;;12.30;10.93;;;22.90;95.10;;;;;;5041723;28;20497;-86
2023/06/20 06:28:12;;;;;;;21.23;9.70;;;22.60;95.00;;;;;;5043875;28;20948;-86
2023/06/20 06:30:39;;;;;;;9.67;8.87;;;22.30;96.50;;;;;;5037633;28;20557;-80
2023/06/20 06:33:08;;;;;;;9.97;8.83;;;21.90;97.80;;;;;;5038276;28;20511;-80
2023/06/20 06:35:36;;;;;;;9.93;9.07;;;22.00;98.70;;;;;;5044129;28;20986;-80
2023/06/20 06:38:04;;;;;;;9.43;8.63;;;22.20;97.80;;;;;;5039944;28;20485;-79
2023/06/20 06:40:32;;;;;;;10.23;9.40;;;22.20;97.90;;;;;;5044910;28;20516;-87
2023/06/20 06:42:59;;;;;;;9.57;8.77;;;22.40;98.20;;;;;;5043045;28;20497;-85
2023/06/20 06:45:27;;;;;;;11.13;10.10;;;22.40;98.80;;;;;;5038676;28;20493;-88
2023/06/20 06:47:55;;;;;;;10.43;9.43;;;22.60;98.70;;;;;;5045292;28;20506;-88
2023/06/20 06:50:21;;;;;;;10.50;8.60;;;22.80;97.30;;;;;;5035804;28;20482;-84
2023/06/20 06:52:48;;;;;;;11.00;7.97;;;23.10;97.10;;;;;;5035399;28;20556;-84
2023/06/20 06:55:15;;;;;;;9.23;8.50;;;23.40;97.10;;;;;;5042474;28;20881;-85
2023/06/20 06:57:42;;;;;;;9.27;8.57;;;23.90;94.50;;;;;;5043227;28;21031;-86
2023/06/20 07:00:12;;;;;;;11.07;10.10;;;24.40;93.20;;;;;;5043409;28;20529;-84
2023/06/20 07:02:41;;;;;;;11.83;10.83;;;24.50;92.10;;;;;;5043151;28;20520;-87
2023/06/20 07:05:09;;;;;;;11.27;10.37;;;24.80;91.90;;;;;;5042775;28;20505;-86
2023/06/20 07:07:36;;;;;;;11.27;10.20;;;24.80;92.40;;;;;;5036156;28;20477;-84
2023/06/20 07:10:03;;;;;;;11.10;10.00;;;24.50;90.60;;;;;;5037495;28;20547;-84
2023/06/20 07:12:31;;;;;;;11.30;10.27;;;24.30;91.40;;;;;;5041465;28;20492;-85
2023/06/20 07:14:58;;;;;;;12.27;11.10;;;24.10;92.00;;;;;;5040789;28;20482;-84
2023/06/20 07:17:25;;;;;;;11.30;10.30;;;24.20;92.40;;;;;;5042760;28;20580;-84
2023/06/20 07:19:53;;;;;;;12.73;11.30;;;24.10;93.50;;;;;;5042377;28;20528;-86
2023/06/20 07:22:21;;;;;;;12.67;11.40;;;24.20;93.20;;;;;;5040415;28;20460;-87
2023/06/20 07:24:48;;;;;;;13.80;12.40;;;23.90;93.20;;;;;;5044117;28;21160;-89
2023/06/20 07:27:15;;;;;;;12.70;11.70;;;23.70;94.00;;;;;;5037054;28;20557;-86
2023/06/20 07:29:42;;;;;;;13.20;12.10;;;23.70;94.00;;;;;;5045505;28;20565;-89
2023/06/20 07:32:09;;;;;;;12.03;11.13;;;23.70;94.20;;;;;;5044086;28;20446;-86
2023/06/20 07:34:36;;;;;;;12.87;11.60;;;23.80;94.50;;;;;;5041555;28;20553;-88
2023/06/20 07:37:05;;;;;;;14.13;12.77;;;23.70;94.80;;;;;;5044088;28;20505;-85
2023/06/20 07:39:32;;;;;;;12.03;10.93;;;24.00;95.50;;;;;;5043483;28;20467;-86
2023/06/20 07:41:59;;;;;;;11.97;10.87;;;24.20;94.90;;;;;;5044284;28;20494;-84
2023/06/20 07:44:26;;;;;;;12.97;12.00;;;24.30;94.50;;;;;;5043722;28;20551;-85
2023/06/20 07:46:53;;;;;;;11.30;10.40;;;24.50;94.50;;;;;;5044510;28;21218;-86
2023/06/20 07:49:20;;;;;;;10.70;9.90;;;24.50;92.50;;;;;;5042629;28;20491;-84
2023/06/20 07:51:47;;;;;;;9.53;8.60;;;24.70;92.90;;;;;;5041521;28;20491;-89
2023/06/20 07:54:15;;;;;;;10.37;9.37;;;25.20;90.90;;;;;;5045266;28;20450;-87
2023/06/20 07:56:42;;;;;;;11.20;10.20;;;26.00;90.50;;;;;;5041333;28;20487;-85
2023/06/20 07:59:10;;;;;;;9.20;8.50;;;26.00;87.10;;;;;;5037161;28;20521;-86
2023/06/20 08:01:36;;;;;;;8.97;8.20;;;25.50;90.20;;;;;;5042291;28;20539;-88
2023/06/20 08:04:04;;;;;;;8.43;7.73;;;25.60;90.60;;;;;;5041884;28;20507;-85
2023/06/20 08:06:31;;;;;;;8.77;8.07;;;25.60;89.50;;;;;;5043853;28;20482;-84
2023/06/20 08:08:58;;;;;;;9.37;8.50;;;25.30;89.70;;;;;;5041435;28;20458;-87
2023/06/20 08:11:26;;;;;;;8.63;7.97;;;25.30;89.40;;;;;;5043228;28;21079;-84
2023/06/20 08:13:53;;;;;;;9.80;8.90;;;25.40;91.40;;;;;;5041028;28;20468;-84
2023/06/20 08:16:20;;;;;;;10.00;9.20;;;25.20;90.10;;;;;;5041129;28;20463;-88
2023/06/20 08:18:47;;;;;;;9.23;8.50;;;25.10;90.50;;;;;;5042288;28;20486;-84
2023/06/20 08:21:14;;;;;;;10.07;9.30;;;24.70;91.10;;;;;;5042565;28;20489;-84
2023/06/20 08:23:41;;;;;;;8.97;8.17;;;24.40;91.10;;;;;;5039402;28;20493;-84
2023/06/20 08:26:08;;;;;;;10.63;9.50;;;24.20;92.10;;;;;;5035696;28;20541;-84
2023/06/20 08:28:36;;;;;;;10.73;9.83;;;24.20;92.70;;;;;;5040440;28;20481;-84
2023/06/20 08:31:03;;;;;;;9.60;8.80;;;24.30;92.30;;;;;;5040163;28;20514;-83
2023/06/20 08:33:30;;;;;;;11.07;10.03;;;24.40;93.10;;;;;;5042307;28;20494;-84
2023/06/20 08:35:58;;;;;;;10.23;9.33;;;24.60;92.60;;;;;;5040912;28;20473;-84
2023/06/20 08:38:25;;;;;;;10.63;9.77;;;24.70;92.50;;;;;;5040733;28;20532;-85
2023/06/20 08:40:52;;;;;;;10.37;9.33;;;24.80;92.50;;;;;;5043574;28;20535;-84
2023/06/20 08:43:19;;;;;;;10.90;10.00;;;24.80;92.60;;;;;;5043462;28;20508;-87
2023/06/20 08:45:47;;;;;;;8.60;7.90;;;25.00;92.40;;;;;;5042272;28;20451;-84
2023/06/20 08:48:14;;;;;;;12.40;9.50;;;25.20;91.90;;;;;;5036307;28;21134;-84
2023/06/20 08:50:41;;;;;;;9.03;8.27;;;25.40;91.40;;;;;;5048889;28;20539;-84
2023/06/20 08:53:10;;;;;;;11.00;8.93;;;25.60;91.40;;;;;;5041802;28;20501;-85
2023/06/20 08:55:40;;;;;;;9.40;8.60;;;25.70;92.50;;;;;;5044472;28;20492;-84
2023/06/20 08:58:09;;;;;;;8.73;8.03;;;26.20;92.30;;;;;;5046655;28;20503;-85
2023/06/20 09:00:37;;;;;;;10.30;9.50;;;26.30;90.50;;;;;;5045739;28;20482;-84
2023/06/20 09:03:05;;;;;;;8.00;7.40;;;26.30;90.10;;;;;;5046752;28;20517;-82
2023/06/20 09:05:33;;;;;;;8.83;8.03;;;26.20;89.50;;;;;;5045507;28;20863;-85
2023/06/20 09:08:00;;;;;;;8.10;7.50;;;26.50;89.60;;;;;;5046985;28;20472;-85
2023/06/20 09:10:27;;;;;;;8.90;8.10;;;26.50;89.90;;;;;;5041752;28;20496;-85
2023/06/20 09:12:56;;;;;;;8.13;7.53;;;26.60;88.10;;;;;;5046353;28;20472;-82
2023/06/20 09:15:25;;;;;;;7.73;7.13;;;26.70;87.80;;;;;;5042466;28;20851;-83
2023/06/20 09:17:52;;;;;;;8.27;7.67;;;27.10;90.00;;;;;;5042759;28;20487;-83
2023/06/20 09:20:24;;;;;;;8.90;8.20;;;27.30;84.90;;;;;;5040923;28;20497;-82
2023/06/20 09:22:51;;;;;;;8.50;7.70;;;27.60;86.60;;;;;;5039969;28;20465;-83
2023/06/20 09:25:21;;;;;;;7.83;7.07;;;27.70;85.60;;;;;;5044683;28;20485;-83
2023/06/20 09:27:48;;;;;;;7.37;6.77;;;27.60;86.40;;;;;;5042540;28;20823;-83
2023/06/20 09:30:15;;;;;;;7.67;7.00;;;27.80;83.90;;;;;;5043619;28;20591;-82
2023/06/20 09:32:43;;;;;;;8.10;7.50;;;27.80;83.80;;;;;;5045755;28;20496;-83
2023/06/20 09:35:11;;;;;;;8.30;7.60;;;27.70;79.10;;;;;;5040230;28;21296;-82
2023/06/20 09:37:41;;;;;;;6.80;6.30;;;27.80;82.00;;;;;;5041284;28;20525;-83
2023/06/20 09:40:10;;;;;;;6.80;6.30;;;27.90;78.90;;;;;;5041447;28;21088;-83
2023/06/20 09:42:37;;;;;;;7.67;6.87;;;27.70;78.00;;;;;;5045947;28;20529;-84
2023/06/20 09:45:05;;;;;;;7.20;6.67;;;27.90;85.20;;;;;;5044225;28;20524;-85
2023/06/20 09:47:34;;;;;;;6.83;6.23;;;28.00;77.90;;;;;;5044248;28;20494;-84
2023/06/20 09:50:04;;;;;;;8.10;7.50;;;27.80;78.30;;;;;;5040246;28;20487;-83
2023/06/20 09:52:34;;;;;;;12.27;11.10;;;28.20;80.70;;;;;;5040830;28;20499;-85
2023/06/20 09:55:09;;;;;;;9.67;8.83;;;28.30;75.70;;;;;;5042718;28;20487;-83
2023/06/20 09:57:41;;;;;;;7.43;6.60;;;28.70;75.40;;;;;;5041760;28;20443;-82
2023/06/20 10:00:12;;;;;;;7.63;7.13;;;28.70;74.40;;;;;;5042619;28;20583;-84
2023/06/20 10:02:43;;;;;;;9.93;6.80;;;28.80;74.10;;;;;;5042829;28;20889;-83
2023/06/20 10:05:12;;;;;;;7.13;6.53;;;28.80;72.70;;;;;;5039402;28;20452;-83
2023/06/20 10:07:41;;;;;;;7.90;7.30;;;28.80;74.80;;;;;;5041267;28;20986;-84
2023/06/20 10:10:10;;;;;;;6.63;6.10;;;29.20;72.40;;;;;;5044348;28;20495;-83
2023/06/20 10:12:39;;;;;;;7.37;6.67;;;29.40;73.40;;;;;;5044817;28;20477;-83
2023/06/20 10:15:08;;;;;;;7.63;7.03;;;29.20;73.20;;;;;;5041939;28;20456;-83
2023/06/20 10:17:39;;;;;;;6.43;5.60;;;29.10;71.30;;;;;;5043185;28;20490;-83
2023/06/20 10:20:08;;;;;;;5.40;4.90;;;29.50;72.60;;;;;;5040762;28;20540;-83
2023/06/20 10:22:37;;;;;;;10.13;6.90;;;29.80;65.10;;;;;;5046786;28;20502;-83
2023/06/20 10:25:11;;;;;;;5.60;5.20;;;29.80;65.30;;;;;;5043697;28;20467;-81
2023/06/20 10:27:41;;;;;;;5.47;5.03;;;29.90;64.80;;;;;;5042421;28;21158;-82
2023/06/20 10:30:09;;;;;;;5.63;5.23;;;30.00;62.60;;;;;;5047196;28;20457;-81
2023/06/20 10:32:38;;;;;;;6.10;5.70;;;30.30;58.40;;;;;;5041661;28;20457;-84
2023/06/20 10:35:09;;;;;;;5.80;5.40;;;30.10;60.80;;;;;;5046136;28;20999;-82
2023/06/20 10:37:38;;;;;;;5.57;5.17;;;30.00;59.90;;;;;;5041442;28;20446;-82
2023/06/20 10:40:10;;;;;;;4.47;4.23;;;29.90;57.50;;;;;;5040377;28;20522;-84
2023/06/20 10:42:41;;;;;;;4.30;4.00;;;30.30;54.60;;;;;;5038464;28;20453;-82
2023/06/20 10:45:21;;;;;;;5.50;5.10;;;30.10;58.90;;;;;;5032939;28;20490;-81
2023/06/20 10:47:49;;;;;;;5.47;5.07;;;30.10;60.30;;;;;;5037027;28;21006;-82
2023/06/20 10:50:16;;;;;;;5.20;4.70;;;30.10;62.10;;;;;;5043357;28;20484;-82
2023/06/20 10:52:43;;;;;;;5.90;5.20;;;30.20;54.60;;;;;;5044206;28;20485;-82
2023/06/20 10:55:14;;;;;;;10.43;5.77;;;30.40;56.70;;;;;;5042106;28;20485;-82
2023/06/20 10:57:46;;;;;;;5.70;5.30;;;30.00;57.40;;;;;;5040592;28;21122;-84
2023/06/20 11:00:17;;;;;;;5.00;4.70;;;29.80;59.10;;;;;;5039449;28;20489;-82
2023/06/20 11:02:45;;;;;;;6.03;5.63;;;30.20;59.80;;;;;;5044615;28;20469;-82
2023/06/20 11:05:12;;;;;;;5.73;5.33;;;30.60;56.20;;;;;;5038166;28;22151;-83
2023/06/20 11:07:53;;;;;;;5.77;5.00;;;30.50;53.60;;;;;;5044553;28;20500;-82
2023/06/20 11:10:21;;;;;;;5.13;4.80;;;30.30;55.90;;;;;;5043452;28;20971;-84
2023/06/20 11:12:49;;;;;;;5.03;4.73;;;30.70;57.10;;;;;;5043236;28;21010;-85
2023/06/20 11:15:24;;;;;;;5.53;5.17;;;30.70;54.10;;;;;;5043881;28;20462;-85
2023/06/20 11:17:51;;;;;;;5.20;4.80;;;30.80;52.10;;;;;;5038811;28;20586;-86
2023/06/20 11:20:20;;;;;;;5.00;4.60;;;30.90;50.90;;;;;;5043583;28;20507;-82
2023/06/20 11:22:48;;;;;;;5.37;5.00;;;31.10;51.00;;;;;;5043557;28;20499;-85
2023/06/20 11:25:23;;;;;;;4.60;4.40;;;30.60;50.60;;;;;;5044547;28;20492;-83
2023/06/20 11:27:51;;;;;;;4.90;4.40;;;30.70;52.00;;;;;;5038906;28;20440;-84
2023/06/20 11:30:25;;;;;;;5.93;5.37;;;31.00;51.90;;;;;;5037969;28;20517;-83
2023/06/20 11:33:00;;;;;;;4.60;4.20;;;30.90;51.80;;;;;;5042085;28;20465;-85
2023/06/20 11:35:39;;;;;;;4.90;4.53;;;31.00;50.60;;;;;;5042655;28;20465;-84
2023/06/20 11:38:06;;;;;;;4.87;4.57;;;31.00;50.10;;;;;;5036386;28;20453;-83
2023/06/20 11:40:33;;;;;;;5.47;4.83;;;31.10;49.20;;;;;;5040283;28;20500;-83
2023/06/20 11:43:02;;;;;;;4.60;4.30;;;30.90;51.30;;;;;;5039687;28;20550;-83
2023/06/20 11:45:29;;;;;;;4.77;4.47;;;30.80;50.40;;;;;;5041215;28;20457;-83
2023/06/20 11:48:08;;;;;;;5.07;4.70;;;30.90;50.20;;;;;;5039791;28;20469;-83
2023/06/20 11:50:36;;;;;;;5.57;5.03;;;31.00;51.00;;;;;;5042559;28;21010;-83
2023/06/20 11:53:04;;;;;;;5.60;5.20;;;31.10;48.50;;;;;;5035934;28;20556;-83
2023/06/20 11:55:51;;;;;;;5.40;4.90;;;31.00;50.20;;;;;;5043446;28;20457;-85
2023/06/20 11:58:20;;;;;;;5.00;4.60;;;31.10;48.10;;;;;;5036912;28;20487;-84
2023/06/20 12:00:48;;;;;;;5.40;4.03;;;31.40;49.70;;;;;;5039955;28;20445;-85
2023/06/20 12:03:21;;;;;;;3.87;3.63;;;32.00;50.40;;;;;;5043471;28;20468;-83
2023/06/20 12:05:48;;;;;;;3.93;3.63;;;32.10;50.40;;;;;;5039249;28;20453;-83
2023/06/20 12:08:15;;;;;;;5.53;4.73;;;32.20;47.50;;;;;;5044981;28;20482;-84
2023/06/20 12:10:47;;;;;;;5.50;5.10;;;32.00;47.70;;;;;;5041373;28;20544;-85
2023/06/20 12:13:15;;;;;;;5.40;5.00;;;31.60;49.90;;;;;;5039630;28;21012;-83
2023/06/20 12:15:45;;;;;;;5.40;5.00;;;31.90;52.50;;;;;;5041840;28;20802;-84
2023/06/20 12:18:12;;;;;;;5.07;4.83;;;31.60;52.70;;;;;;5044392;28;20462;-84
2023/06/20 12:20:39;;;;;;;6.13;5.63;;;31.40;49.40;;;;;;5038715;28;20811;-85
2023/06/20 12:23:06;;;;;;;4.67;4.27;;;31.40;53.60;;;;;;5039053;28;20550;-84
2023/06/20 12:25:33;;;;;;;5.73;4.57;;;31.00;50.00;;;;;;5046444;28;21102;-84
2023/06/20 12:28:01;;;;;;;5.47;5.07;;;31.00;53.40;;;;;;5044606;28;20481;-85
2023/06/20 12:30:30;;;;;;;4.37;4.07;;;31.30;49.10;;;;;;5045595;28;20445;-83
2023/06/20 12:32:59;;;;;;;4.20;3.90;;;31.60;46.30;;;;;;5042188;28;20554;-83
2023/06/20 12:35:26;;;;;;;4.60;4.30;;;31.90;46.40;;;;;;5041190;28;20465;-83
2023/06/20 12:37:53;;;;;;;6.30;5.80;;;31.90;47.90;;;;;;5041761;28;20472;-86
2023/06/20 12:40:20;;;;;;;4.30;4.03;;;32.30;50.60;;;;;;5045846;28;20483;-84
2023/06/20 12:42:47;;;;;;;5.17;4.77;;;32.10;46.30;;;;;;5042343;28;20511;-85
2023/06/20 12:45:14;;;;;;;5.10;4.70;;;31.90;47.40;;;;;;5048931;28;20473;-83
2023/06/20 12:47:41;;;;;;;4.47;4.17;;;32.00;48.20;;;;;;5044549;28;20496;-85
2023/06/20 12:50:10;;;;;;;4.70;4.40;;;32.10;48.20;;;;;;5039059;28;20539;-86